WEATHER DATA

YESTERDAY
Time Temp. Dewp. Hum. Wind dir Wind speed Wind gust Bar.
00:16 14 8 67 0 0 1013
00:26 13.9 7.9 67 0 0 1012.9
00:36 13.9 7.9 67 0 0 1012.8
00:46 13.7 7.7 67 0 0 1012.7
00:56 13.6 7.6 67 0 0 1012.5
01:07 13.4 7.6 68 0 0 1012.5
01:16 13.3 7.5 68 0 0 1012.5
01:26 13.2 7.6 69 0 0 1012.4
01:30 13.2 7.6 69 329 0.8 2.2 1012.4
01:41 13.1 7.5 69 347 0.8 1.4 1012.4
01:50 13.1 7.5 69 357 0.8 1.4 1012.3
02:00 13.1 7.5 69 351 0.8 1.7 1012.2
02:11 13 7.7 70 357 0.8 1.4 1012.1
02:21 13 7.7 70 6 0.8 1.4 1012.1
02:31 12.9 7.6 70 0 0.3 1.1 1012.1
02:41 12.9 7.6 70 353 0.3 1.1 1012
02:51 12.8 7.7 71 344 0.3 1.1 1012.1
03:01 12.7 7.6 71 330 0.3 1.1 1012
03:11 12.6 7.5 71 0 0.3 1.1 1011.9
03:22 12.4 7.3 71 351 0.3 1.4 1011.9
03:32 12.2 7.1 71 303 0.8 2.2 1011.8
03:42 11.9 7 72 297 0.8 1.4 1011.7
03:51 11.6 6.7 72 291 0.8 1.1 1011.6
04:02 11.3 6.6 73 297 0.8 1.7 1011.6
04:12 11.1 6.4 73 305 0.8 1.4 1011.6
04:22 11 6.6 74 303 0.8 1.4 1011.6
04:32 10.8 6.4 74 315 0.8 1.7 1011.5
04:43 10.8 6.6 75 315 0.8 1.7 1011.5
04:53 10.8 6.7 76 302 0.8 2.2 1011.5
05:02 10.9 6.8 76 315 0.8 2.2 1011.4
05:13 10.9 7 77 310 0.8 2.8 1011.5
05:23 10.9 7 77 301 0.8 2.5 1011.5
05:33 11 7.1 77 307 0.8 2.2 1011.4
05:43 10.9 7.2 78 307 1.1 2.5 1011.5
05:54 10.9 7.2 78 309 0.8 2.5 1011.5
06:04 11 7.3 78 308 1.1 2.2 1011.5
06:13 11 7.3 78 308 0.8 1.7 1011.5
06:24 11.1 7.4 78 315 0.8 1.4 1011.5
06:34 11.2 7.5 78 312 0.8 2.2 1011.4
06:44 11.5 8 79 329 0.8 1.7 1011.3
06:54 12 8.5 79 318 0.8 2.2 1011.4
07:05 12.5 8.8 78 311 0.8 1.7 1011.3
07:15 12.9 9 77 328 0.8 2.5 1011.3
07:24 13.6 9.6 77 325 1.1 2.2 1011.4
07:34 14.1 9.9 76 325 1.1 2.2 1011.3
07:45 14.6 10.2 75 325 1.1 2.2 1011.4
07:55 15.2 10.6 74 0 0 1011.4
08:04 15.7 10.9 73 0 0 1011.4
08:15 15.8 10.6 71 0 0 1011.5
08:25 16 10.5 70 0 0 1011.5
08:35 16.3 10.8 70 0 0 1011.6
08:45 16.7 11 69 0 0 1011.7
08:55 17 11.3 69 0 0 1011.7
09:05 17.5 11.8 69 0 0 1011.7
09:15 17.9 11.9 68 0 0 1011.7
09:26 18.3 12.1 67 0 0 1011.7
09:36 18.6 12.1 66 0 0 1011.7
09:45 18.9 12.4 66 0 0 1011.7
09:51 19.1 12.4 65 325 1.1 2.2 1011.7
10:01 19.3 12.6 65 90 0.8 1.7 1011.6
10:11 19.5 12.3 63 90 0.8 1.7 1011.6
10:21 19.6 12.4 63 90 0.8 1.7 1011.6
10:31 19.9 12.4 62 0 0 1011.6
10:45 20.3 12.3 60 90 0.8 1.7 1011.6
10:55 20.4 12.4 60 27 0.8 1.7 1011.7
11:05 20.5 12.2 59 26 0.8 1.7 1011.7
11:15 20.5 12.2 59 26 0.8 1.7 1011.7
11:25 20.7 12.1 58 347 0.8 2.8 1011.6
11:35 20.9 12.6 59 305 1.1 3.1 1011.6
11:45 21 12.2 57 305 1.1 3.1 1011.4
11:55 21.2 12.1 56 305 1.1 3.1 1011.4
12:05 21.2 11.8 55 0 0 1011.4
12:16 21.2 11.5 54 0 0 1011.4
12:26 21.3 11.6 54 0 0 1011.4
12:36 21.3 11.1 52 0 0 1011.3
12:46 21.3 11.1 52 0 0 1011.2
12:56 21.4 11.1 52 0 0 1011
13:06 21.5 11.2 52 0 0 1010.9
13:09 21.5 11.2 52 305 1.1 3.1 1010.8
13:20 21.5 11.5 53 326 0.3 1.4 1010.8
13:30 21.5 11.2 52 0 0.8 2.2 1010.7
13:39 21.5 11.2 52 328 0.8 2.5 1010.7
13:50 21.8 11.5 52 337 1.1 2.8 1010.6
14:00 21.9 11.3 51 337 1.1 2.8 1010.6
14:10 21.9 10.7 49 337 1.1 2.8 1010.4
14:20 22.1 10.9 49 325 0.8 2.5 1010.4
14:30 22.1 10.9 49 15 0.8 2.5 1010.3
14:40 22 10.8 49 14 0.8 1.4 1010.3
14:50 22.1 10.9 49 343 0.8 3.6 1010.3
15:01 22.1 10.6 48 296 0.8 2.8 1010.3
15:10 22.2 10.4 47 323 0.8 2.8 1010.2
15:20 22.3 10.5 47 299 0.8 2.8 1010.1
15:30 22.4 10.5 47 291 0.8 4.2 1010.1
15:41 22.4 10.2 46 336 0.8 2.5 1009.9
15:58 22.7 10.8 47 8 0.8 6.1 1009.8
16:08 22.9 11 47 25 0.8 2.2 1009.7
16:17 22.9 10.7 46 325 1.1 2.5 1009.7
16:28 22.9 10.7 46 14 0.8 2.2 1009.6
16:38 22.8 10.6 46 56 0.3 1.1 1009.5
16:48 22.7 10.2 45 315 0.8 2.8 1009.5
16:58 22.7 10.2 45 333 0.8 1.7 1009.5
17:08 22.8 10.3 45 333 0.3 1.7 1009.4
17:18 22.9 10.3 45 21 0.3 1.4 1009.1
17:38 22.8 10.3 45 39 0.8 1.7 1008.9
17:48 23 10.4 45 11 0.8 2.2 1008.9
17:58 23.4 10.8 45 50 0.8 2.5 1008.9
18:09 23.6 10.3 43 21 0.8 2.2 1008.7
18:19 23.9 10.6 43 14 0.8 1.7 1008.7
18:28 23.3 10 43 41 0.8 1.7 1008.7
18:38 22.9 10 44 54 0.3 1.1 1008.6
18:49 22.5 10 45 22 0.8 1.7 1008.7
18:59 22.6 10.1 45 50 0.8 1.4 1008.7
19:08 22.5 10 45 24 1.1 2.2 1008.8
19:19 22.1 10 46 22 1.1 2.2 1008.6
19:29 21.5 10 48 343 1.4 2.5 1008.6
19:39 21 10.5 51 306 1.1 2.2 1008.7
19:48 20.5 10 51 293 1.1 2.2 1008.6
19:59 20 9.9 52 331 1.4 2.2 1008.6
20:09 19.4 9.9 54 316 1.1 2.2 1008.7
20:18 18.9 9.9 56 313 1.1 2.2 1008.7
20:29 18.2 9.6 57 315 0.8 1.7 1008.8
20:39 17.7 9.3 58 270 0.3 1.1 1008.8
20:49 17.2 9.1 59 315 0.3 0.8 1008.8
20:59 16.7 8.9 60 270 0.3 0.8 1008.9
21:09 16.3 8.8 61 306 0.3 1.1 1009
21:19 15.8 8.5 62 324 0.3 1.1 1009.1
21:29 15.4 8.4 63 324 0.3 1.1 1009.1
21:40 15 8.3 64 324 0.3 1.1 1009.2
21:49 14.7 8 64 0 0 1009.2
21:59 14.4 7.9 65 0 0 1009.2
22:09 14.1 7.9 66 0 0 1009.4
22:20 13.9 7.9 67 0 0 1009.4
22:30 13.7 7.7 67 0 0 1009.4
22:39 13.5 7.7 68 0 0 1009.5
22:50 13.3 7.5 68 0 0 1009.5
23:04 13 7.5 69 324 0.3 1.1 1009.4
23:14 12.8 7.3 69 310 0.3 1.1 1009.4
23:24 12.7 7.4 70 310 0.3 1.1 1009.4
23:34 12.6 7.3 70 310 0.3 1.1 1009.5
23:44 12.6 7.3 70 0 0 1009.5
23:55 12.5 7.2 70 0 0 1009.6

DAY STATISTIC

2019-05-24
TEMPERATURE
AVERAGE
17.2
HIGH
23.9
18:19
LOW
10.8
04:32
PRESSURE
AVERAGE
1010.7
HIGH
1013.0
00:16
LOW
1008.6
18:38
DEWPOINT
AVERAGE
9.5
HIGH
12.6
10:01
LOW
6.4
04:12
HUMIDITY
AVERAGE
62
HIGH
79
06:44
LOW
43
18:09
WIND SPEED
AVERAGE
0.6
HIGH
1.4
19:29
WIND GUST
AVERAGE
1.5
HIGH
6.1
15:58
WIND DIRECTION
PREVAILING
NW
58.7%
N
23.1
NE
10.6
E
3.8
SE
0.0
S
0.0
SW
0.0
W
3.8
NW
58.7
TEMPERATURE (°C)
LOW
10.8
HIGH
23.9
AVERAGE
17.2
PRESSURE (hpa)
LOW
1008.6
HIGH
1013.0
AVERAGE
1010.7
DEVICE